Погода Берриосабальна 2 недели

Чьяпас, Мексика

03 - 15 марта
  • 03марта
    Сегодня
    +19°
    +34°
    Небольшая облачность
    ВремяПогодаТемператураВлажностьДавлениеВетер, м/сВероятность осадков
    00:00Ясно и безоблачно+22°C95 %689 мм1.4 м/с2 %
    03:00Небольшая облачность+21°C97 %688 мм0.9 м/с2 %
    06:00Практически безоблачно+21°C97 %689 мм0.4 м/с2 %
    09:00Ясно и безоблачно+26°C47 %690 мм1.9 м/с2 %
    12:00Ясно и безоблачно+32°C33 %690 мм2.0 м/с2 %
    15:00Небольшая облачность+33°C32 %688 мм5.2 м/с9 %
    18:00Ясно и безоблачно+28°C49 %687 мм4.9 м/с11 %
    21:00Ясно и безоблачно+24°C64 %688 мм2.4 м/с2 %
  • 04марта
    Понедельник
    +19°
    +34°
    Облачно с прояснениями
    ВремяПогодаТемператураВлажностьДавлениеВетер, м/сВероятность осадков
    00:00Ясно и безоблачно+22°C69 %688 мм1.3 м/с2 %
    03:00Практически безоблачно+21°C75 %687 мм1.2 м/с2 %
    06:00Ясно и безоблачно+20°C77 %687 мм0.9 м/с2 %
    09:00Ясно и безоблачно+25°C48 %689 мм2.3 м/с2 %
    12:00Облачно с прояснениями+32°C32 %689 мм2.7 м/с2 %
    15:00Облачно с прояснениями+33°C31 %686 мм5.1 м/с2 %
    18:00Ясно и безоблачно+28°C49 %686 мм5.3 м/с2 %
    21:00Ясно и безоблачно+24°C61 %687 мм2.5 м/с1 %
  • 05марта
    Вторник
    +20°
    +33°
    Ясно и безоблачно
    ВремяПогодаТемператураВлажностьДавлениеВетер, м/сВероятность осадков
    00:00Ясно и безоблачно+22°C72 %688 мм1.0 м/с2 %
    03:00Ясно и безоблачно+21°C80 %686 мм1.0 м/с2 %
    06:00Ясно и безоблачно+20°C82 %686 мм1.3 м/с2 %
    09:00Ясно и безоблачно+26°C47 %688 мм2.6 м/с2 %
    12:00Ясно и безоблачно+32°C31 %688 мм2.6 м/с2 %
    15:00Ясно и безоблачно+32°C41 %686 мм6.3 м/с3 %
    18:00Ясно и безоблачно+29°C54 %687 мм5.2 м/с6 %
    21:00Ясно и безоблачно+24°C74 %688 мм1.6 м/с2 %
  • 06марта
    Среда
    +21°
    +33°
    Практически безоблачно
    ВремяПогодаТемператураВлажностьДавлениеВетер, м/сВероятность осадков
    00:00Ясно и безоблачно+22°C80 %687 мм1.3 м/с2 %
    03:00Ясно и безоблачно+20°C84 %686 мм0.7 м/с2 %
    06:00Практически безоблачно+20°C77 %686 мм0.6 м/с2 %
    09:00Ясно и безоблачно+26°C43 %689 мм0.6 м/с3 %
    12:00Ясно и безоблачно+32°C32 %688 мм1.9 м/с4 %
    15:00Практически безоблачно+33°C37 %686 мм4.4 м/с34 %
    18:00Практически безоблачно+28°C74 %687 мм4.7 м/с19 %
    21:00Ясно и безоблачно+25°C85 %688 мм1.9 м/с3 %
Мы используем cookies
Соглашаюсь